sensor_id;sensor_type;location;lat;lon;timestamp;temperature;humidity
59961;DHT22;55902;-37.980;-63.602;2023-04-25T00:00:37;16.20;99.90
59961;DHT22;55902;-37.980;-63.602;2023-04-25T00:03:04;16.20;99.90
59961;DHT22;55902;-37.980;-63.602;2023-04-25T00:05:32;16.10;99.90
59961;DHT22;55902;-37.980;-63.602;2023-04-25T00:07:59;16.10;99.90
59961;DHT22;55902;-37.980;-63.602;2023-04-25T00:10:26;16.00;99.90
59961;DHT22;55902;-37.980;-63.602;2023-04-25T00:12:53;16.00;99.90
59961;DHT22;55902;-37.980;-63.602;2023-04-25T00:15:20;15.90;99.90
59961;DHT22;55902;-37.980;-63.602;2023-04-25T00:17:47;15.90;99.90
59961;DHT22;55902;-37.980;-63.602;2023-04-25T00:20:14;15.80;99.90
59961;DHT22;55902;-37.980;-63.602;2023-04-25T00:22:41;15.90;99.90
59961;DHT22;55902;-37.980;-63.602;2023-04-25T00:25:08;15.80;99.90
59961;DHT22;55902;-37.980;-63.602;2023-04-25T00:27:35;15.80;99.90
59961;DHT22;55902;-37.980;-63.602;2023-04-25T00:30:03;15.80;99.90
59961;DHT22;55902;-37.980;-63.602;2023-04-25T00:32:30;15.80;99.90
59961;DHT22;55902;-37.980;-63.602;2023-04-25T00:34:57;15.70;99.90
59961;DHT22;55902;-37.980;-63.602;2023-04-25T00:37:25;15.70;99.90
59961;DHT22;55902;-37.980;-63.602;2023-04-25T00:39:52;15.70;99.90
59961;DHT22;55902;-37.980;-63.602;2023-04-25T00:42:21;15.70;99.90
59961;DHT22;55902;-37.980;-63.602;2023-04-25T00:44:48;15.70;99.90
59961;DHT22;55902;-37.980;-63.602;2023-04-25T00:47:15;15.70;99.90
59961;DHT22;55902;-37.980;-63.602;2023-04-25T00:49:42;15.70;99.90
59961;DHT22;55902;-37.980;-63.602;2023-04-25T00:52:10;15.70;99.90
59961;DHT22;55902;-37.980;-63.602;2023-04-25T00:54:37;15.70;99.90
59961;DHT22;55902;-37.980;-63.602;2023-04-25T00:57:04;15.60;99.90
59961;DHT22;55902;-37.980;-63.602;2023-04-25T00:59:31;15.60;99.90
59961;DHT22;55902;-37.980;-63.602;2023-04-25T01:01:59;15.60;99.90
59961;DHT22;55902;-37.980;-63.602;2023-04-25T01:04:27;15.50;99.90
59961;DHT22;55902;-37.980;-63.602;2023-04-25T01:06:55;15.50;99.90
59961;DHT22;55902;-37.980;-63.602;2023-04-25T01:09:22;15.50;99.90
59961;DHT22;55902;-37.980;-63.602;2023-04-25T01:11:50;15.50;99.90
59961;DHT22;55902;-37.980;-63.602;2023-04-25T01:14:17;15.50;99.90
59961;DHT22;55902;-37.980;-63.602;2023-04-25T01:16:44;15.50;99.90
59961;DHT22;55902;-37.980;-63.602;2023-04-25T01:19:11;15.50;99.90
59961;DHT22;55902;-37.980;-63.602;2023-04-25T01:21:38;15.50;99.90
59961;DHT22;55902;-37.980;-63.602;2023-04-25T01:24:06;15.40;99.90
59961;DHT22;55902;-37.980;-63.602;2023-04-25T01:26:34;15.40;99.90
59961;DHT22;55902;-37.980;-63.602;2023-04-25T01:29:03;15.40;99.90
59961;DHT22;55902;-37.980;-63.602;2023-04-25T01:31:30;15.40;99.90
59961;DHT22;55902;-37.980;-63.602;2023-04-25T01:33:58;15.30;99.90
59961;DHT22;55902;-37.980;-63.602;2023-04-25T01:36:25;15.30;99.90
59961;DHT22;55902;-37.980;-63.602;2023-04-25T01:38:53;15.30;99.90
59961;DHT22;55902;-37.980;-63.602;2023-04-25T01:41:20;15.40;99.90
59961;DHT22;55902;-37.980;-63.602;2023-04-25T01:43:49;15.40;99.90
59961;DHT22;55902;-37.980;-63.602;2023-04-25T01:46:16;15.40;99.90
59961;DHT22;55902;-37.980;-63.602;2023-04-25T01:52:06;15.30;99.90
59961;DHT22;55902;-37.980;-63.602;2023-04-25T01:54:33;15.30;99.90
59961;DHT22;55902;-37.980;-63.602;2023-04-25T01:57:00;15.30;99.90
59961;DHT22;55902;-37.980;-63.602;2023-04-25T01:59:27;15.30;99.90
59961;DHT22;55902;-37.980;-63.602;2023-04-25T02:01:54;15.20;99.90
59961;DHT22;55902;-37.980;-63.602;2023-04-25T02:04:21;15.20;99.90
59961;DHT22;55902;-37.980;-63.602;2023-04-25T02:06:48;15.10;99.90
59961;DHT22;55902;-37.980;-63.602;2023-04-25T02:09:15;15.10;99.90
59961;DHT22;55902;-37.980;-63.602;2023-04-25T02:11:42;15.10;99.90
59961;DHT22;55902;-37.980;-63.602;2023-04-25T02:14:09;15.00;99.90
59961;DHT22;55902;-37.980;-63.602;2023-04-25T02:16:36;15.00;99.90
59961;DHT22;55902;-37.980;-63.602;2023-04-25T02:19:03;14.90;99.90
59961;DHT22;55902;-37.980;-63.602;2023-04-25T02:21:33;14.90;99.90
59961;DHT22;55902;-37.980;-63.602;2023-04-25T02:24:04;14.90;99.90
59961;DHT22;55902;-37.980;-63.602;2023-04-25T02:26:31;14.80;99.90
59961;DHT22;55902;-37.980;-63.602;2023-04-25T02:28:58;14.80;99.90
59961;DHT22;55902;-37.980;-63.602;2023-04-25T02:31:26;14.80;99.90
59961;DHT22;55902;-37.980;-63.602;2023-04-25T02:33:53;14.70;99.90
59961;DHT22;55902;-37.980;-63.602;2023-04-25T02:36:20;14.70;99.90
59961;DHT22;55902;-37.980;-63.602;2023-04-25T02:38:50;14.60;99.90
59961;DHT22;55902;-37.980;-63.602;2023-04-25T02:41:17;14.60;99.90
59961;DHT22;55902;-37.980;-63.602;2023-04-25T02:43:44;14.60;99.90
59961;DHT22;55902;-37.980;-63.602;2023-04-25T02:46:11;14.60;99.90
59961;DHT22;55902;-37.980;-63.602;2023-04-25T02:48:38;14.60;99.90
59961;DHT22;55902;-37.980;-63.602;2023-04-25T02:51:05;14.60;99.90
59961;DHT22;55902;-37.980;-63.602;2023-04-25T02:53:32;14.50;99.90
59961;DHT22;55902;-37.980;-63.602;2023-04-25T02:55:59;14.50;99.90
59961;DHT22;55902;-37.980;-63.602;2023-04-25T02:58:26;14.50;99.90
59961;DHT22;55902;-37.980;-63.602;2023-04-25T03:00:53;14.50;99.90
59961;DHT22;55902;-37.980;-63.602;2023-04-25T03:03:20;14.40;99.90
59961;DHT22;55902;-37.980;-63.602;2023-04-25T03:05:50;14.40;99.90
59961;DHT22;55902;-37.980;-63.602;2023-04-25T03:08:18;14.40;99.90
59961;DHT22;55902;-37.980;-63.602;2023-04-25T03:14:07;14.40;99.90
59961;DHT22;55902;-37.980;-63.602;2023-04-25T03:16:34;14.40;99.90
59961;DHT22;55902;-37.980;-63.602;2023-04-25T03:19:01;14.40;99.90
59961;DHT22;55902;-37.980;-63.602;2023-04-25T03:21:30;14.40;99.90
59961;DHT22;55902;-37.980;-63.602;2023-04-25T03:23:58;14.40;99.90
59961;DHT22;55902;-37.980;-63.602;2023-04-25T03:26:25;14.30;99.90
59961;DHT22;55902;-37.980;-63.602;2023-04-25T03:28:52;14.30;99.90
59961;DHT22;55902;-37.980;-63.602;2023-04-25T03:31:19;14.30;99.90
59961;DHT22;55902;-37.980;-63.602;2023-04-25T03:33:46;14.30;99.90
59961;DHT22;55902;-37.980;-63.602;2023-04-25T03:36:14;14.30;99.90
59961;DHT22;55902;-37.980;-63.602;2023-04-25T03:38:41;14.30;99.90
59961;DHT22;55902;-37.980;-63.602;2023-04-25T03:41:08;14.20;99.90
59961;DHT22;55902;-37.980;-63.602;2023-04-25T03:43:35;14.20;99.90
59961;DHT22;55902;-37.980;-63.602;2023-04-25T03:46:02;14.20;99.90
59961;DHT22;55902;-37.980;-63.602;2023-04-25T03:48:29;14.10;99.90
59961;DHT22;55902;-37.980;-63.602;2023-04-25T03:50:56;14.00;99.90
59961;DHT22;55902;-37.980;-63.602;2023-04-25T03:53:23;14.00;99.90
59961;DHT22;55902;-37.980;-63.602;2023-04-25T03:55:50;13.90;99.90
59961;DHT22;55902;-37.980;-63.602;2023-04-25T03:58:17;13.90;99.90
59961;DHT22;55902;-37.980;-63.602;2023-04-25T04:00:44;13.80;99.90
59961;DHT22;55902;-37.980;-63.602;2023-04-25T04:03:11;13.80;99.90
59961;DHT22;55902;-37.980;-63.602;2023-04-25T04:05:38;13.70;99.90
59961;DHT22;55902;-37.980;-63.602;2023-04-25T04:08:06;13.70;99.90
59961;DHT22;55902;-37.980;-63.602;2023-04-25T04:10:33;13.70;99.90
59961;DHT22;55902;-37.980;-63.602;2023-04-25T04:23:08;13.50;99.90
59961;DHT22;55902;-37.980;-63.602;2023-04-25T04:25:35;13.50;99.90
59961;DHT22;55902;-37.980;-63.602;2023-04-25T04:28:02;13.50;99.90
59961;DHT22;55902;-37.980;-63.602;2023-04-25T04:30:29;13.50;99.90
59961;DHT22;55902;-37.980;-63.602;2023-04-25T04:32:57;13.40;99.90
59961;DHT22;55902;-37.980;-63.602;2023-04-25T04:35:24;13.40;99.90
59961;DHT22;55902;-37.980;-63.602;2023-04-25T04:37:52;13.30;99.90
59961;DHT22;55902;-37.980;-63.602;2023-04-25T04:40:19;13.30;99.90
59961;DHT22;55902;-37.980;-63.602;2023-04-25T04:42:46;13.30;99.90
59961;DHT22;55902;-37.980;-63.602;2023-04-25T04:45:14;13.30;99.90
59961;DHT22;55902;-37.980;-63.602;2023-04-25T04:47:42;13.20;99.90
59961;DHT22;55902;-37.980;-63.602;2023-04-25T04:50:10;13.20;99.90
59961;DHT22;55902;-37.980;-63.602;2023-04-25T04:52:37;13.10;99.90
59961;DHT22;55902;-37.980;-63.602;2023-04-25T04:55:05;13.10;99.90
59961;DHT22;55902;-37.980;-63.602;2023-04-25T04:57:33;13.00;99.90
59961;DHT22;55902;-37.980;-63.602;2023-04-25T05:00:00;13.00;99.90
59961;DHT22;55902;-37.980;-63.602;2023-04-25T05:02:27;12.90;99.90
59961;DHT22;55902;-37.980;-63.602;2023-04-25T05:04:55;12.90;99.90
59961;DHT22;55902;-37.980;-63.602;2023-04-25T05:07:22;12.90;99.90
59961;DHT22;55902;-37.980;-63.602;2023-04-25T05:09:49;12.90;99.90
59961;DHT22;55902;-37.980;-63.602;2023-04-25T05:12:16;12.90;99.90
59961;DHT22;55902;-37.980;-63.602;2023-04-25T05:14:43;12.80;99.90
59961;DHT22;55902;-37.980;-63.602;2023-04-25T05:17:10;12.80;99.90
59961;DHT22;55902;-37.980;-63.602;2023-04-25T05:19:37;12.90;99.90
59961;DHT22;55902;-37.980;-63.602;2023-04-25T05:22:05;12.80;99.90
59961;DHT22;55902;-37.980;-63.602;2023-04-25T05:24:32;12.80;99.90
59961;DHT22;55902;-37.980;-63.602;2023-04-25T05:26:59;12.80;99.90
59961;DHT22;55902;-37.980;-63.602;2023-04-25T05:29:26;12.70;99.90
59961;DHT22;55902;-37.980;-63.602;2023-04-25T05:31:53;12.70;99.90
59961;DHT22;55902;-37.980;-63.602;2023-04-25T05:34:20;12.70;99.90
59961;DHT22;55902;-37.980;-63.602;2023-04-25T05:36:47;12.70;99.90
59961;DHT22;55902;-37.980;-63.602;2023-04-25T05:39:17;12.70;99.90
59961;DHT22;55902;-37.980;-63.602;2023-04-25T05:41:44;12.70;99.90
59961;DHT22;55902;-37.980;-63.602;2023-04-25T05:44:11;12.70;99.90
59961;DHT22;55902;-37.980;-63.602;2023-04-25T05:46:38;12.60;99.90
59961;DHT22;55902;-37.980;-63.602;2023-04-25T05:49:06;12.50;99.90
59961;DHT22;55902;-37.980;-63.602;2023-04-25T05:51:33;12.50;99.90
59961;DHT22;55902;-37.980;-63.602;2023-04-25T05:54:00;12.50;99.90
59961;DHT22;55902;-37.980;-63.602;2023-04-25T05:56:27;12.50;99.90
59961;DHT22;55902;-37.980;-63.602;2023-04-25T05:58:54;12.50;99.90
59961;DHT22;55902;-37.980;-63.602;2023-04-25T06:01:22;12.50;99.90
59961;DHT22;55902;-37.980;-63.602;2023-04-25T06:03:49;12.50;99.90
59961;DHT22;55902;-37.980;-63.602;2023-04-25T06:06:19;12.50;99.90
59961;DHT22;55902;-37.980;-63.602;2023-04-25T06:08:46;12.50;99.90
59961;DHT22;55902;-37.980;-63.602;2023-04-25T06:11:13;12.40;99.90
59961;DHT22;55902;-37.980;-63.602;2023-04-25T06:13:40;12.40;99.90
59961;DHT22;55902;-37.980;-63.602;2023-04-25T06:16:07;12.40;99.90
59961;DHT22;55902;-37.980;-63.602;2023-04-25T06:18:34;12.40;99.90
59961;DHT22;55902;-37.980;-63.602;2023-04-25T06:21:01;12.40;99.90
59961;DHT22;55902;-37.980;-63.602;2023-04-25T06:23:28;12.30;99.90
59961;DHT22;55902;-37.980;-63.602;2023-04-25T06:25:55;12.30;99.90
59961;DHT22;55902;-37.980;-63.602;2023-04-25T06:28:22;12.30;99.90
59961;DHT22;55902;-37.980;-63.602;2023-04-25T06:30:51;12.30;99.90
59961;DHT22;55902;-37.980;-63.602;2023-04-25T06:33:18;12.20;99.90
59961;DHT22;55902;-37.980;-63.602;2023-04-25T06:35:46;12.20;99.90
59961;DHT22;55902;-37.980;-63.602;2023-04-25T06:38:13;12.20;99.90
59961;DHT22;55902;-37.980;-63.602;2023-04-25T06:40:41;12.10;99.90
59961;DHT22;55902;-37.980;-63.602;2023-04-25T06:43:08;12.10;99.90
59961;DHT22;55902;-37.980;-63.602;2023-04-25T06:45:35;12.20;99.90
59961;DHT22;55902;-37.980;-63.602;2023-04-25T06:48:02;12.10;99.90
59961;DHT22;55902;-37.980;-63.602;2023-04-25T06:50:29;12.10;99.90
59961;DHT22;55902;-37.980;-63.602;2023-04-25T06:52:56;12.10;99.90
59961;DHT22;55902;-37.980;-63.602;2023-04-25T06:55:23;12.10;99.90
59961;DHT22;55902;-37.980;-63.602;2023-04-25T06:57:50;12.00;99.90
59961;DHT22;55902;-37.980;-63.602;2023-04-25T07:00:17;12.00;99.90
59961;DHT22;55902;-37.980;-63.602;2023-04-25T07:02:44;12.00;99.90
59961;DHT22;55902;-37.980;-63.602;2023-04-25T07:05:11;12.00;99.90
59961;DHT22;55902;-37.980;-63.602;2023-04-25T07:07:38;12.00;99.90
59961;DHT22;55902;-37.980;-63.602;2023-04-25T07:10:05;12.00;99.90
59961;DHT22;55902;-37.980;-63.602;2023-04-25T07:12:32;12.00;99.90
59961;DHT22;55902;-37.980;-63.602;2023-04-25T07:14:59;11.90;99.90
59961;DHT22;55902;-37.980;-63.602;2023-04-25T07:17:32;11.90;99.90
59961;DHT22;55902;-37.980;-63.602;2023-04-25T07:20:00;11.90;99.90
59961;DHT22;55902;-37.980;-63.602;2023-04-25T07:22:27;11.90;99.90
59961;DHT22;55902;-37.980;-63.602;2023-04-25T07:24:54;11.90;99.90
59961;DHT22;55902;-37.980;-63.602;2023-04-25T07:27:21;11.90;99.90
59961;DHT22;55902;-37.980;-63.602;2023-04-25T07:29:47;11.90;99.90
59961;DHT22;55902;-37.980;-63.602;2023-04-25T07:32:14;11.90;99.90
59961;DHT22;55902;-37.980;-63.602;2023-04-25T07:34:41;11.80;99.90
59961;DHT22;55902;-37.980;-63.602;2023-04-25T07:37:08;11.70;99.90
59961;DHT22;55902;-37.980;-63.602;2023-04-25T07:39:35;11.70;99.90
59961;DHT22;55902;-37.980;-63.602;2023-04-25T07:42:03;11.70;99.90
59961;DHT22;55902;-37.980;-63.602;2023-04-25T07:44:32;11.70;99.90
59961;DHT22;55902;-37.980;-63.602;2023-04-25T07:47:07;11.70;99.90
59961;DHT22;55902;-37.980;-63.602;2023-04-25T07:49:35;11.70;99.90
59961;DHT22;55902;-37.980;-63.602;2023-04-25T07:52:03;11.70;99.90
59961;DHT22;55902;-37.980;-63.602;2023-04-25T07:54:32;11.60;99.90
59961;DHT22;55902;-37.980;-63.602;2023-04-25T07:56:59;11.60;99.90
59961;DHT22;55902;-37.980;-63.602;2023-04-25T07:59:26;11.60;99.90
59961;DHT22;55902;-37.980;-63.602;2023-04-25T08:01:53;11.50;99.90
59961;DHT22;55902;-37.980;-63.602;2023-04-25T08:04:20;11.50;99.90
59961;DHT22;55902;-37.980;-63.602;2023-04-25T08:06:47;11.50;99.90
59961;DHT22;55902;-37.980;-63.602;2023-04-25T08:09:14;11.50;99.90
59961;DHT22;55902;-37.980;-63.602;2023-04-25T08:11:42;11.50;99.90
59961;DHT22;55902;-37.980;-63.602;2023-04-25T08:14:09;11.50;99.90
59961;DHT22;55902;-37.980;-63.602;2023-04-25T08:16:36;11.50;99.90
59961;DHT22;55902;-37.980;-63.602;2023-04-25T08:19:03;11.50;99.90
59961;DHT22;55902;-37.980;-63.602;2023-04-25T08:21:31;11.50;99.90
59961;DHT22;55902;-37.980;-63.602;2023-04-25T08:23:58;11.40;99.90
59961;DHT22;55902;-37.980;-63.602;2023-04-25T08:26:26;11.40;99.90
59961;DHT22;55902;-37.980;-63.602;2023-04-25T08:28:53;11.40;99.90
59961;DHT22;55902;-37.980;-63.602;2023-04-25T08:31:19;11.40;99.90
59961;DHT22;55902;-37.980;-63.602;2023-04-25T08:33:47;11.30;99.90
59961;DHT22;55902;-37.980;-63.602;2023-04-25T08:36:15;11.30;99.90
59961;DHT22;55902;-37.980;-63.602;2023-04-25T08:38:43;11.30;99.90
59961;DHT22;55902;-37.980;-63.602;2023-04-25T08:41:11;11.30;99.90
59961;DHT22;55902;-37.980;-63.602;2023-04-25T08:43:42;11.30;99.90
59961;DHT22;55902;-37.980;-63.602;2023-04-25T08:46:18;11.20;99.90
59961;DHT22;55902;-37.980;-63.602;2023-04-25T08:48:45;11.20;99.90
59961;DHT22;55902;-37.980;-63.602;2023-04-25T08:51:21;11.20;99.90
59961;DHT22;55902;-37.980;-63.602;2023-04-25T08:53:51;11.20;99.90
59961;DHT22;55902;-37.980;-63.602;2023-04-25T08:56:19;11.10;99.90
59961;DHT22;55902;-37.980;-63.602;2023-04-25T08:58:49;11.10;99.90
59961;DHT22;55902;-37.980;-63.602;2023-04-25T09:01:17;11.10;99.90
59961;DHT22;55902;-37.980;-63.602;2023-04-25T09:03:45;11.00;99.90
59961;DHT22;55902;-37.980;-63.602;2023-04-25T09:06:13;11.00;99.90
59961;DHT22;55902;-37.980;-63.602;2023-04-25T09:08:42;11.00;99.90
59961;DHT22;55902;-37.980;-63.602;2023-04-25T09:11:09;11.00;99.90
59961;DHT22;55902;-37.980;-63.602;2023-04-25T09:13:36;11.00;99.90
59961;DHT22;55902;-37.980;-63.602;2023-04-25T09:16:03;11.00;99.90
59961;DHT22;55902;-37.980;-63.602;2023-04-25T09:18:34;10.90;99.90
59961;DHT22;55902;-37.980;-63.602;2023-04-25T09:21:09;10.90;99.90
59961;DHT22;55902;-37.980;-63.602;2023-04-25T09:23:44;10.90;99.90
59961;DHT22;55902;-37.980;-63.602;2023-04-25T09:26:16;10.90;99.90
59961;DHT22;55902;-37.980;-63.602;2023-04-25T09:28:44;10.80;99.90
59961;DHT22;55902;-37.980;-63.602;2023-04-25T09:31:12;10.80;99.90
59961;DHT22;55902;-37.980;-63.602;2023-04-25T09:33:41;10.80;99.90
59961;DHT22;55902;-37.980;-63.602;2023-04-25T09:36:09;10.80;99.90
59961;DHT22;55902;-37.980;-63.602;2023-04-25T09:38:45;10.80;99.90
59961;DHT22;55902;-37.980;-63.602;2023-04-25T09:41:13;10.80;99.90
59961;DHT22;55902;-37.980;-63.602;2023-04-25T09:43:51;10.80;99.90
59961;DHT22;55902;-37.980;-63.602;2023-04-25T09:46:18;10.80;99.90
59961;DHT22;55902;-37.980;-63.602;2023-04-25T09:48:51;10.80;99.90
59961;DHT22;55902;-37.980;-63.602;2023-04-25T09:51:20;10.80;99.90
59961;DHT22;55902;-37.980;-63.602;2023-04-25T09:53:50;10.80;99.90
59961;DHT22;55902;-37.980;-63.602;2023-04-25T09:56:19;10.70;99.90
59961;DHT22;55902;-37.980;-63.602;2023-04-25T09:58:47;10.70;99.90
59961;DHT22;55902;-37.980;-63.602;2023-04-25T10:01:17;10.70;99.90
59961;DHT22;55902;-37.980;-63.602;2023-04-25T10:03:45;10.70;99.90
59961;DHT22;55902;-37.980;-63.602;2023-04-25T10:06:18;10.70;99.90
59961;DHT22;55902;-37.980;-63.602;2023-04-25T10:08:49;10.70;99.90
59961;DHT22;55902;-37.980;-63.602;2023-04-25T10:11:18;10.70;99.90
59961;DHT22;55902;-37.980;-63.602;2023-04-25T10:13:46;10.70;99.90
59961;DHT22;55902;-37.980;-63.602;2023-04-25T10:16:14;10.70;99.90
59961;DHT22;55902;-37.980;-63.602;2023-04-25T10:18:42;10.70;99.90
59961;DHT22;55902;-37.980;-63.602;2023-04-25T10:21:10;10.60;99.90
59961;DHT22;55902;-37.980;-63.602;2023-04-25T10:23:38;10.70;99.90
59961;DHT22;55902;-37.980;-63.602;2023-04-25T10:26:07;10.70;99.90
59961;DHT22;55902;-37.980;-63.602;2023-04-25T10:29:08;10.70;99.90
59961;DHT22;55902;-37.980;-63.602;2023-04-25T10:31:45;10.60;99.90
59961;DHT22;55902;-37.980;-63.602;2023-04-25T10:34:13;10.70;99.90
59961;DHT22;55902;-37.980;-63.602;2023-04-25T10:47:11;10.70;99.90
59961;DHT22;55902;-37.980;-63.602;2023-04-25T10:49:42;10.70;99.90
59961;DHT22;55902;-37.980;-63.602;2023-04-25T10:52:14;10.70;99.90
59961;DHT22;55902;-37.980;-63.602;2023-04-25T10:54:51;10.80;99.90
59961;DHT22;55902;-37.980;-63.602;2023-04-25T11:02:43;10.80;99.90
59961;DHT22;55902;-37.980;-63.602;2023-04-25T11:05:31;10.80;99.90
59961;DHT22;55902;-37.980;-63.602;2023-04-25T11:07:59;10.80;99.90
59961;DHT22;55902;-37.980;-63.602;2023-04-25T11:10:31;10.80;99.90
59961;DHT22;55902;-37.980;-63.602;2023-04-25T11:12:58;10.80;99.90
59961;DHT22;55902;-37.980;-63.602;2023-04-25T11:15:26;10.80;99.90
59961;DHT22;55902;-37.980;-63.602;2023-04-25T11:17:54;10.80;99.90
59961;DHT22;55902;-37.980;-63.602;2023-04-25T11:20:22;10.80;99.90
59961;DHT22;55902;-37.980;-63.602;2023-04-25T11:22:49;10.80;99.90
59961;DHT22;55902;-37.980;-63.602;2023-04-25T11:25:16;10.90;99.90
59961;DHT22;55902;-37.980;-63.602;2023-04-25T11:27:56;10.90;99.90
59961;DHT22;55902;-37.980;-63.602;2023-04-25T11:30:24;10.90;99.90
59961;DHT22;55902;-37.980;-63.602;2023-04-25T11:32:52;11.00;99.90
59961;DHT22;55902;-37.980;-63.602;2023-04-25T11:35:22;11.00;99.90
59961;DHT22;55902;-37.980;-63.602;2023-04-25T11:37:51;11.10;99.90
59961;DHT22;55902;-37.980;-63.602;2023-04-25T11:40:18;11.20;99.90
59961;DHT22;55902;-37.980;-63.602;2023-04-25T11:42:46;11.20;99.90
59961;DHT22;55902;-37.980;-63.602;2023-04-25T11:45:14;11.30;99.90
59961;DHT22;55902;-37.980;-63.602;2023-04-25T11:47:41;11.40;99.90
59961;DHT22;55902;-37.980;-63.602;2023-04-25T11:50:09;11.60;99.90
59961;DHT22;55902;-37.980;-63.602;2023-04-25T11:52:44;11.80;99.90
59961;DHT22;55902;-37.980;-63.602;2023-04-25T11:55:19;12.20;99.90
59961;DHT22;55902;-37.980;-63.602;2023-04-25T11:57:48;12.60;99.90
59961;DHT22;55902;-37.980;-63.602;2023-04-25T12:00:20;13.00;99.90
59961;DHT22;55902;-37.980;-63.602;2023-04-25T12:02:53;13.30;99.90
59961;DHT22;55902;-37.980;-63.602;2023-04-25T12:05:23;13.60;99.90
59961;DHT22;55902;-37.980;-63.602;2023-04-25T12:07:50;13.90;99.90
59961;DHT22;55902;-37.980;-63.602;2023-04-25T12:10:18;14.20;99.90
59961;DHT22;55902;-37.980;-63.602;2023-04-25T12:12:46;14.50;99.90
59961;DHT22;55902;-37.980;-63.602;2023-04-25T12:15:22;14.70;99.90
59961;DHT22;55902;-37.980;-63.602;2023-04-25T12:17:51;15.00;99.90
59961;DHT22;55902;-37.980;-63.602;2023-04-25T12:20:27;15.20;99.90
59961;DHT22;55902;-37.980;-63.602;2023-04-25T12:22:56;15.40;99.90
59961;DHT22;55902;-37.980;-63.602;2023-04-25T12:25:41;15.60;99.90
59961;DHT22;55902;-37.980;-63.602;2023-04-25T12:28:22;15.80;99.90
59961;DHT22;55902;-37.980;-63.602;2023-04-25T12:31:03;16.10;99.90
59961;DHT22;55902;-37.980;-63.602;2023-04-25T12:33:32;16.20;99.90
59961;DHT22;55902;-37.980;-63.602;2023-04-25T12:36:04;16.30;99.90
59961;DHT22;55902;-37.980;-63.602;2023-04-25T12:38:43;16.50;99.90
59961;DHT22;55902;-37.980;-63.602;2023-04-25T12:41:12;16.80;99.90
59961;DHT22;55902;-37.980;-63.602;2023-04-25T12:43:59;17.10;99.90
59961;DHT22;55902;-37.980;-63.602;2023-04-25T12:46:26;17.30;99.90
59961;DHT22;55902;-37.980;-63.602;2023-04-25T12:49:05;17.40;99.90
59961;DHT22;55902;-37.980;-63.602;2023-04-25T12:51:35;17.40;99.90
59961;DHT22;55902;-37.980;-63.602;2023-04-25T12:54:03;17.50;99.90
59961;DHT22;55902;-37.980;-63.602;2023-04-25T12:56:32;17.60;99.90
59961;DHT22;55902;-37.980;-63.602;2023-04-25T12:58:59;17.80;99.90
59961;DHT22;55902;-37.980;-63.602;2023-04-25T13:01:26;17.90;99.90
59961;DHT22;55902;-37.980;-63.602;2023-04-25T13:03:53;18.00;99.90
59961;DHT22;55902;-37.980;-63.602;2023-04-25T13:06:21;18.20;99.90
59961;DHT22;55902;-37.980;-63.602;2023-04-25T13:08:48;18.50;99.90
59961;DHT22;55902;-37.980;-63.602;2023-04-25T13:11:16;18.60;99.90
59961;DHT22;55902;-37.980;-63.602;2023-04-25T13:13:44;18.70;99.90
59961;DHT22;55902;-37.980;-63.602;2023-04-25T13:16:11;18.60;99.90
59961;DHT22;55902;-37.980;-63.602;2023-04-25T13:18:42;18.60;99.90
59961;DHT22;55902;-37.980;-63.602;2023-04-25T13:21:10;18.70;99.90
59961;DHT22;55902;-37.980;-63.602;2023-04-25T13:23:38;19.00;99.90
59961;DHT22;55902;-37.980;-63.602;2023-04-25T13:26:12;19.10;99.90
59961;DHT22;55902;-37.980;-63.602;2023-04-25T13:28:41;19.20;99.90
59961;DHT22;55902;-37.980;-63.602;2023-04-25T13:31:12;19.30;99.90
59961;DHT22;55902;-37.980;-63.602;2023-04-25T13:33:59;19.30;99.90
59961;DHT22;55902;-37.980;-63.602;2023-04-25T13:36:29;19.20;99.90
59961;DHT22;55902;-37.980;-63.602;2023-04-25T13:38:58;19.30;99.90
59961;DHT22;55902;-37.980;-63.602;2023-04-25T13:41:28;19.50;99.90
59961;DHT22;55902;-37.980;-63.602;2023-04-25T13:43:56;19.60;99.90
59961;DHT22;55902;-37.980;-63.602;2023-04-25T13:46:26;19.90;99.90
59961;DHT22;55902;-37.980;-63.602;2023-04-25T13:48:53;20.10;99.90
59961;DHT22;55902;-37.980;-63.602;2023-04-25T13:51:20;20.30;99.90
59961;DHT22;55902;-37.980;-63.602;2023-04-25T13:53:47;20.50;99.90
59961;DHT22;55902;-37.980;-63.602;2023-04-25T13:56:14;20.50;99.90
59961;DHT22;55902;-37.980;-63.602;2023-04-25T13:58:42;20.60;99.90
59961;DHT22;55902;-37.980;-63.602;2023-04-25T14:01:12;21.00;99.90
59961;DHT22;55902;-37.980;-63.602;2023-04-25T14:03:39;21.10;99.90
59961;DHT22;55902;-37.980;-63.602;2023-04-25T14:06:06;21.20;99.90
59961;DHT22;55902;-37.980;-63.602;2023-04-25T14:08:34;21.40;99.90
59961;DHT22;55902;-37.980;-63.602;2023-04-25T14:11:01;21.60;99.90
59961;DHT22;55902;-37.980;-63.602;2023-04-25T14:13:29;21.90;99.70
59961;DHT22;55902;-37.980;-63.602;2023-04-25T14:15:56;22.10;99.30
59961;DHT22;55902;-37.980;-63.602;2023-04-25T14:18:23;22.40;98.90
59961;DHT22;55902;-37.980;-63.602;2023-04-25T14:20:51;22.60;97.90
59961;DHT22;55902;-37.980;-63.602;2023-04-25T14:23:18;22.60;98.10
59961;DHT22;55902;-37.980;-63.602;2023-04-25T14:25:46;22.70;98.30
59961;DHT22;55902;-37.980;-63.602;2023-04-25T14:28:16;22.90;98.60
59961;DHT22;55902;-37.980;-63.602;2023-04-25T14:30:44;23.10;97.50
59961;DHT22;55902;-37.980;-63.602;2023-04-25T14:33:11;23.10;97.10
59961;DHT22;55902;-37.980;-63.602;2023-04-25T14:35:38;23.20;96.80
59961;DHT22;55902;-37.980;-63.602;2023-04-25T14:38:06;23.30;97.00
59961;DHT22;55902;-37.980;-63.602;2023-04-25T14:40:34;23.50;96.90
59961;DHT22;55902;-37.980;-63.602;2023-04-25T14:43:01;23.60;96.70
59961;DHT22;55902;-37.980;-63.602;2023-04-25T14:45:29;23.80;96.50
59961;DHT22;55902;-37.980;-63.602;2023-04-25T14:47:56;23.90;96.30
59961;DHT22;55902;-37.980;-63.602;2023-04-25T14:50:30;24.10;95.40
59961;DHT22;55902;-37.980;-63.602;2023-04-25T14:53:00;24.20;95.00
59961;DHT22;55902;-37.980;-63.602;2023-04-25T14:55:27;24.30;94.40
59961;DHT22;55902;-37.980;-63.602;2023-04-25T14:57:54;24.50;94.80
59961;DHT22;55902;-37.980;-63.602;2023-04-25T15:00:22;24.40;94.50
59961;DHT22;55902;-37.980;-63.602;2023-04-25T15:02:49;24.60;95.00
59961;DHT22;55902;-37.980;-63.602;2023-04-25T15:05:17;24.90;95.20
59961;DHT22;55902;-37.980;-63.602;2023-04-25T15:07:44;25.10;94.60
59961;DHT22;55902;-37.980;-63.602;2023-04-25T15:10:11;25.40;94.40
59961;DHT22;55902;-37.980;-63.602;2023-04-25T15:12:43;25.70;92.80
59961;DHT22;55902;-37.980;-63.602;2023-04-25T15:15:14;25.90;93.70
59961;DHT22;55902;-37.980;-63.602;2023-04-25T15:17:42;26.00;92.80
59961;DHT22;55902;-37.980;-63.602;2023-04-25T15:20:14;26.10;91.40
59961;DHT22;55902;-37.980;-63.602;2023-04-25T15:22:43;25.90;91.90
59961;DHT22;55902;-37.980;-63.602;2023-04-25T15:25:18;26.00;92.70
59961;DHT22;55902;-37.980;-63.602;2023-04-25T15:27:47;26.10;91.60